Time;durP1;ratioP1;P1;durP2;ratioP2;P2;SDS_P1;SDS_P2;PMS_P1;PMS_P2;Temp;Humidity;BMP_temperature;BMP_pressure;BME280_temperature;BME280_humidity;BME280_pressure;Samples;Min_cycle;Max_cycle;Signal;HPM_P1;HPM_P2
2023/03/13 00:00:54;;;;;;;;;2.00;2.00;;;;;13.68;81.32;100124.69;4719192;29;45919;-61
2023/03/13 00:03:19;;;;;;;;;1.60;1.60;;;;;13.66;80.95;100118.59;4747951;29;45988;-61
2023/03/13 00:05:45;;;;;;;;;2.25;2.25;;;;;13.06;81.19;100022.38;4748942;29;45462;-60
2023/03/13 00:08:11;;;;;;;;;3.00;3.00;;;;;13.64;81.27;100116.06;4748957;29;46369;-61
2023/03/13 00:10:37;;;;;;;;;2.50;2.50;;;;;13.64;81.46;100109.72;4748731;29;45423;-60
2023/03/13 00:13:03;;;;;;;;;3.60;2.80;;;;;13.64;81.27;100109.72;4748703;29;45842;-61
2023/03/13 00:15:28;;;;;;;;;3.00;1.00;;;;;13.63;81.23;100108.91;4749055;29;45356;-61
2023/03/13 00:17:54;;;;;;;;;2.75;2.75;;;;;13.63;81.83;100094.25;4748607;29;46519;-60
2023/03/13 00:20:19;;;;;;;;;3.75;3.00;;;;;13.43;81.54;100070.72;4748960;29;45405;-63
2023/03/13 00:22:44;;;;;;;;;3.50;2.25;;;;;13.67;81.62;100115.56;4748642;29;45487;-60
2023/03/13 00:25:10;;;;;;;;;2.50;2.50;;;;;13.70;81.88;100130.78;4748998;29;45644;-60
2023/03/13 00:27:35;;;;;;;;;1.25;1.25;;;;;13.49;81.30;100086.31;4748583;29;46079;-61
2023/03/13 00:30:01;;;;;;;;;1.50;1.50;;;;;13.71;81.02;100112.34;4747171;29;45846;-60
2023/03/13 00:32:26;;;;;;;;;2.75;2.00;;;;;13.72;81.20;100100.22;4748891;29;45443;-61
2023/03/13 00:34:52;;;;;;;;;1.50;1.50;;;;;13.73;80.99;100099.97;4747547;29;45852;-61
2023/03/13 00:37:17;;;;;;;;;2.25;2.25;;;;;13.49;80.79;100060.63;4748154;29;46164;-62
2023/03/13 00:39:43;;;;;;;;;1.00;1.00;;;;;13.63;81.47;100075.81;4748279;29;46072;-60
2023/03/13 00:42:09;;;;;;;;;2.40;1.20;;;;;13.63;81.08;100078.56;4748752;29;45529;-61
2023/03/13 00:44:34;;;;;;;;;1.25;1.25;;;;;13.74;80.87;100089.75;4748594;29;45637;-61
2023/03/13 00:47:00;;;;;;;;;1.75;1.50;;;;;13.75;80.86;100105.22;4746928;29;46902;-60
2023/03/13 00:49:25;;;;;;;;;1.75;1.75;;;;;13.65;80.94;100079.16;4747624;29;45443;-61
2023/03/13 00:51:51;;;;;;;;;1.25;1.25;;;;;13.76;80.61;100101.41;4748403;29;45398;-60
2023/03/13 00:54:16;;;;;;;;;3.00;1.75;;;;;13.74;81.05;100100.78;4748676;29;45399;-61
2023/03/13 00:56:42;;;;;;;;;2.75;2.00;;;;;13.72;81.12;100091.94;4746840;29;45835;-60
2023/03/13 00:59:07;;;;;;;;;3.75;2.00;;;;;13.60;81.48;100080.97;4748213;29;45827;-61
2023/03/13 01:01:34;;;;;;;;;1.00;1.00;;;;;13.75;81.25;100108.81;4732467;29;45418;-61
2023/03/13 01:04:03;;;;;;;;;2.20;2.20;;;;;13.75;80.78;100119.00;4738341;29;45471;-61
2023/03/13 01:06:30;;;;;;;;;2.60;2.60;;;;;13.72;81.22;100105.72;4766223;29;46510;-61
2023/03/13 01:08:55;;;;;;;;;1.60;1.60;;;;;13.47;80.64;100060.91;4761526;29;45474;-61
2023/03/13 01:11:23;;;;;;;;;2.00;2.00;;;;;13.76;80.47;100096.69;4766449;29;45784;-61
2023/03/13 01:13:49;;;;;;;;;2.00;2.00;;;;;13.76;80.47;100088.44;4764631;29;45920;-61
2023/03/13 01:16:16;;;;;;;;;2.00;2.00;;;;;13.79;79.69;100079.66;4765940;29;47447;-61
2023/03/13 01:18:44;;;;;;;;;2.60;2.60;;;;;13.62;80.00;100032.78;4766022;29;45880;-61
2023/03/13 01:21:10;;;;;;;;;3.00;3.00;;;;;13.79;79.46;100056.75;4765913;29;45468;-60
2023/03/13 01:23:35;;;;;;;;;1.25;1.25;;;;;13.59;79.88;100030.50;4766258;29;45362;-60
2023/03/13 01:26:02;;;;;;;;;3.00;2.50;;;;;13.52;79.33;100014.16;4734671;29;47331;-61
2023/03/13 01:28:28;;;;;;;;;5.00;4.20;;;;;13.79;78.98;100045.72;4764856;29;45455;-61
2023/03/13 01:30:53;;;;;;;;;4.00;3.00;;;;;13.75;79.04;100028.00;4766215;29;45514;-61
2023/03/13 01:33:19;;;;;;;;;3.00;3.00;;;;;13.63;78.86;100026.19;4764799;29;45685;-61
2023/03/13 01:35:44;;;;;;;;;7.25;7.25;;;;;13.77;78.78;100045.16;4765870;29;45445;-61
2023/03/13 01:38:10;;;;;;;;;6.25;5.00;;;;;13.83;79.04;100058.75;4765739;29;45510;-61
2023/03/13 01:40:43;;;;;;;;;5.00;5.00;;;;;13.83;78.63;100055.19;4766240;29;45368;-60
2023/03/13 01:43:17;;;;;;;;;3.00;3.00;;;;;13.85;78.91;100052.16;4765357;29;45472;-61
2023/03/13 01:46:04;;;;;;;;;3.60;2.40;;;;;13.85;78.96;100046.63;4754227;29;46310;-61
2023/03/13 01:48:38;;;;;;;;;4.00;4.00;;;;;13.87;78.42;100052.75;4747894;29;46445;-62
2023/03/13 01:51:13;;;;;;;;;3.20;2.80;;;;;13.83;78.60;100041.38;4749612;29;45528;-61
2023/03/13 01:53:41;;;;;;;;;3.60;2.80;;;;;13.84;78.28;100021.00;4749918;29;45480;-61
2023/03/13 01:56:09;;;;;;;;;4.00;3.40;;;;;13.82;78.59;100012.09;4750713;29;46514;-60
2023/03/13 01:58:34;;;;;;;;;4.00;4.00;;;;;13.73;78.39;99997.94;4735045;29;45524;-60
2023/03/13 02:01:00;;;;;;;;;3.75;3.75;;;;;13.81;78.03;100013.19;4735302;29;45449;-60
2023/03/13 02:03:25;;;;;;;;;3.00;3.00;;;;;13.80;78.29;100003.25;4749606;29;45428;-61
2023/03/13 02:05:51;;;;;;;;;5.50;3.00;;;;;13.79;78.25;100007.13;4750824;29;45417;-61
2023/03/13 02:08:22;;;;;;;;;2.75;2.75;;;;;13.68;78.41;99984.88;4750918;29;45585;-61
2023/03/13 02:10:55;;;;;;;;;6.40;3.60;;;;;13.79;77.87;100001.59;4749653;29;45519;-60
2023/03/13 02:13:20;;;;;;;;;4.00;4.00;;;;;13.78;77.45;99995.22;4735314;29;45670;-60
2023/03/13 02:15:46;;;;;;;;;2.50;2.50;;;;;13.80;77.88;100000.50;4749328;29;46587;-60
2023/03/13 02:18:12;;;;;;;;;4.00;3.00;;;;;13.79;77.76;99987.81;4749318;29;45621;-60
2023/03/13 02:20:38;;;;;;;;;5.00;3.75;;;;;13.80;77.37;99993.09;4750857;29;45418;-59
2023/03/13 02:23:27;;;;;;;;;6.00;3.40;;;;;13.80;77.19;99986.72;4735122;29;45742;-60
2023/03/13 02:25:53;;;;;;;;;4.80;4.00;;;;;13.80;77.32;99975.69;4750591;29;46182;-61
2023/03/13 02:28:21;;;;;;;;;3.50;3.50;;;;;13.82;77.57;99976.25;4749753;29;45415;-60
2023/03/13 02:30:48;;;;;;;;;5.00;4.00;;;;;13.81;77.39;99971.84;4749966;29;45876;-60
2023/03/13 02:33:14;;;;;;;;;6.60;4.00;;;;;13.75;77.21;99950.78;4737295;29;45679;-60
2023/03/13 02:35:40;;;;;;;;;4.00;4.00;;;;;13.79;77.31;99957.47;4751070;29;45799;-60
2023/03/13 02:38:07;;;;;;;;;6.60;4.60;;;;;13.76;77.43;99955.22;4735175;29;45456;-60
2023/03/13 02:40:38;;;;;;;;;6.00;3.00;;;;;13.75;76.91;99948.88;4734376;29;45535;-60
2023/03/13 02:43:07;;;;;;;;;4.40;3.60;;;;;13.75;77.36;99942.50;4750558;29;45779;-61
2023/03/13 02:45:33;;;;;;;;;4.20;4.20;;;;;13.75;77.50;99956.28;4733860;29;45410;-60
2023/03/13 02:47:58;;;;;;;;;3.00;3.00;;;;;13.75;77.29;99970.94;4749939;29;45634;-61
2023/03/13 02:50:24;;;;;;;;;5.00;5.00;;;;;13.74;76.98;99971.19;4748895;29;45376;-60
2023/03/13 02:52:59;;;;;;;;;4.00;3.00;;;;;13.74;77.24;99944.44;4750128;29;45563;-60
2023/03/13 02:55:27;;;;;;;;;7.40;4.20;;;;;13.74;77.21;99966.50;4749904;29;45815;-60
2023/03/13 02:57:53;;;;;;;;;3.00;3.00;;;;;13.65;77.25;99946.78;4749764;29;45574;-61
2023/03/13 03:00:18;;;;;;;;;3.00;3.00;;;;;13.72;77.43;99940.28;4749863;29;45344;-61
2023/03/13 03:02:44;;;;;;;;;4.25;4.25;;;;;13.57;77.16;99916.03;4729149;29;45989;-61
2023/03/13 03:05:10;;;;;;;;;5.00;4.00;;;;;13.69;77.66;99936.94;4749505;29;46624;-60
2023/03/13 03:07:36;;;;;;;;;5.00;4.00;;;;;13.75;77.30;99934.22;4749774;29;45461;-60
2023/03/13 03:10:01;;;;;;;;;5.00;4.00;;;;;13.76;77.27;99931.22;4748461;29;45763;-62
2023/03/13 03:12:27;;;;;;;;;6.00;4.25;;;;;13.78;76.95;99934.56;4748716;29;45639;-60
2023/03/13 03:14:52;;;;;;;;;4.50;3.25;;;;;13.79;76.96;99929.88;4747669;29;45459;-60
2023/03/13 03:17:18;;;;;;;;;4.00;4.00;;;;;13.80;76.62;99923.28;4733516;29;45831;-60
2023/03/13 03:19:43;;;;;;;;;5.75;4.00;;;;;13.77;76.84;99932.06;4750134;29;45472;-60
2023/03/13 03:22:09;;;;;;;;;4.25;4.25;;;;;13.77;76.54;99921.03;4749978;29;45671;-61
2023/03/13 03:24:34;;;;;;;;;5.50;3.75;;;;;13.77;76.44;99929.31;4749586;29;47111;-60
2023/03/13 03:27:00;;;;;;;;;4.00;3.00;;;;;13.80;76.80;99915.00;4747981;29;45400;-61
2023/03/13 03:29:26;;;;;;;;;4.50;3.00;;;;;13.79;76.28;99930.75;4749937;29;45328;-61
2023/03/13 03:31:52;;;;;;;;;5.60;5.00;;;;;13.80;76.41;99929.66;4750032;29;45438;-60
2023/03/13 03:34:17;;;;;;;;;4.00;2.50;;;;;13.80;76.52;99926.88;4749532;29;46126;-61
2023/03/13 03:36:43;;;;;;;;;4.00;2.75;;;;;13.63;76.66;99904.00;4749722;29;45384;-59
2023/03/13 03:39:08;;;;;;;;;4.00;4.00;;;;;13.82;75.98;99934.88;4733196;29;45442;-60
2023/03/13 03:41:36;;;;;;;;;4.25;3.00;;;;;13.81;76.38;99928.56;4749956;29;45499;-61
2023/03/13 03:44:02;;;;;;;;;5.80;4.60;;;;;13.63;76.39;99904.00;4747992;29;46632;-60
2023/03/13 03:46:27;;;;;;;;;4.00;4.00;;;;;13.83;76.31;99917.28;4749391;29;45452;-61
2023/03/13 03:48:53;;;;;;;;;3.75;3.75;;;;;13.46;76.25;99870.97;4748029;29;45426;-61
2023/03/13 03:51:19;;;;;;;;;2.60;2.60;;;;;13.77;76.38;99916.34;4748120;29;45732;-61
2023/03/13 03:53:45;;;;;;;;;7.00;4.00;;;;;13.73;75.73;99920.72;4749016;29;46433;-61
2023/03/13 03:56:10;;;;;;;;;3.50;3.50;;;;;13.63;76.10;99904.84;4747616;29;45426;-60
2023/03/13 03:58:36;;;;;;;;;3.00;3.00;;;;;13.85;75.67;99920.59;4749348;29;45367;-60
2023/03/13 04:01:01;;;;;;;;;5.50;4.25;;;;;13.55;75.55;99861.16;4749981;29;45306;-60
2023/03/13 04:03:27;;;;;;;;;4.75;3.25;;;;;13.87;75.45;99918.41;4748101;29;46472;-59
2023/03/13 04:05:52;;;;;;;;;4.00;4.00;;;;;13.82;75.26;99902.63;4765417;29;45406;-60
2023/03/13 04:08:18;;;;;;;;;2.75;2.75;;;;;13.80;75.77;99910.34;4761943;29;45668;-60
2023/03/13 04:10:43;;;;;;;;;4.00;4.00;;;;;13.84;75.89;99921.69;4766485;29;45426;-60
2023/03/13 04:13:09;;;;;;;;;5.75;3.50;;;;;13.62;75.40;99883.91;4766851;29;45617;-61
2023/03/13 04:15:34;;;;;;;;;4.00;3.50;;;;;13.81;75.76;99927.72;4765336;29;45530;-61
2023/03/13 04:18:00;;;;;;;;;3.50;3.50;;;;;13.62;75.94;99883.91;4766907;29;45534;-60
2023/03/13 04:20:25;;;;;;;;;5.50;3.00;;;;;13.77;75.61;99899.81;4766821;29;45418;-61
2023/03/13 04:22:51;;;;;;;;;6.25;5.50;;;;;13.67;76.20;99885.88;4766896;29;46397;-60
2023/03/13 04:25:16;;;;;;;;;4.00;3.25;;;;;13.82;75.52;99904.53;4766654;29;45448;-61
2023/03/13 04:27:42;;;;;;;;;4.25;4.25;;;;;13.66;75.83;99871.25;4767042;29;45391;-60
2023/03/13 04:30:08;;;;;;;;;9.25;4.50;;;;;13.80;75.93;99896.56;4765731;29;45386;-61
2023/03/13 04:32:33;;;;;;;;;4.40;4.40;;;;;13.82;75.75;99901.78;4766568;29;45508;-61
2023/03/13 04:34:59;;;;;;;;;5.00;4.00;;;;;13.80;75.84;99906.72;4766916;29;45434;-61
2023/03/13 04:37:24;;;;;;;;;7.00;4.00;;;;;13.81;75.75;99908.41;4765518;29;45340;-61
2023/03/13 04:39:50;;;;;;;;;6.00;5.00;;;;;13.78;76.02;99898.72;4767506;29;45403;-61
2023/03/13 04:42:16;;;;;;;;;6.00;5.00;;;;;13.61;75.86;99862.09;4765722;29;45490;-59
2023/03/13 04:44:41;;;;;;;;;3.00;3.00;;;;;13.61;75.41;99871.16;4766558;29;45412;-61
2023/03/13 04:47:08;;;;;;;;;5.00;5.00;;;;;13.81;75.55;99903.72;4752689;29;45608;-61
2023/03/13 04:49:34;;;;;;;;;5.80;5.60;;;;;13.79;75.56;99896.78;4748495;29;45444;-62
2023/03/13 04:51:59;;;;;;;;;4.50;4.50;;;;;13.77;75.30;99890.72;4747193;29;47546;-61
2023/03/13 04:54:25;;;;;;;;;5.00;4.75;;;;;13.80;75.62;99902.06;4748278;29;45500;-62
2023/03/13 04:56:50;;;;;;;;;5.00;4.00;;;;;13.78;75.27;99906.97;4748420;29;45418;-60
2023/03/13 04:59:16;;;;;;;;;5.75;5.75;;;;;13.81;75.37;99906.50;4748563;29;45476;-61
2023/03/13 05:01:41;;;;;;;;;5.75;4.75;;;;;13.57;75.83;99871.94;4748104;29;46294;-60
2023/03/13 05:04:07;;;;;;;;;4.75;4.75;;;;;13.82;75.85;99913.66;4746800;29;45411;-60
2023/03/13 05:06:33;;;;;;;;;6.25;3.75;;;;;13.84;75.52;99913.44;4748213;29;45429;-60
2023/03/13 05:08:58;;;;;;;;;6.00;5.75;;;;;13.68;76.06;99885.59;4747268;29;45415;-60
2023/03/13 05:11:24;;;;;;;;;5.50;5.00;;;;;13.64;75.46;99858.81;4748296;29;45954;-60
2023/03/13 05:13:49;;;;;;;;;6.50;5.50;;;;;13.56;76.03;99838.03;4746266;29;45423;-60
2023/03/13 05:16:15;;;;;;;;;7.50;7.00;;;;;13.82;75.91;99896.28;4732152;29;45590;-61
2023/03/13 05:18:40;;;;;;;;;8.50;5.00;;;;;13.81;75.47;99884.44;4748209;29;45362;-60
2023/03/13 05:21:06;;;;;;;;;7.00;7.00;;;;;13.81;75.41;99884.44;4748000;29;45712;-61
2023/03/13 05:23:31;;;;;;;;;6.50;5.00;;;;;13.81;76.14;99891.84;4750645;29;45395;-60
2023/03/13 05:25:57;;;;;;;;;4.00;4.00;;;;;13.76;75.84;99889.03;4732779;29;45597;-60
2023/03/13 05:28:22;;;;;;;;;8.50;6.75;;;;;13.77;75.92;99872.22;4749679;29;45563;-61
2023/03/13 05:30:48;;;;;;;;;6.00;5.00;;;;;13.77;75.44;99872.22;4748843;29;46891;-59
2023/03/13 05:33:13;;;;;;;;;5.75;5.75;;;;;13.71;75.65;99867.72;4749048;29;45497;-61
2023/03/13 05:35:39;;;;;;;;;3.00;3.00;;;;;13.74;76.16;99869.16;4751111;29;45510;-60
2023/03/13 05:38:04;;;;;;;;;10.00;6.00;;;;;13.64;75.95;99865.16;4750976;29;45447;-60
2023/03/13 05:40:30;;;;;;;;;5.25;5.25;;;;;13.64;76.27;99859.66;4749489;29;48199;-59
2023/03/13 05:42:55;;;;;;;;;7.50;6.50;;;;;13.67;76.25;99872.09;4751118;29;45466;-59
2023/03/13 05:45:21;;;;;;;;;7.50;4.50;;;;;13.72;75.77;99885.94;4751274;29;45398;-60
2023/03/13 05:47:46;;;;;;;;;4.25;3.50;;;;;13.72;75.76;99883.19;4750860;29;45449;-60
2023/03/13 05:50:12;;;;;;;;;6.75;5.25;;;;;13.55;75.97;99839.09;4750700;29;46806;-60
2023/03/13 05:52:37;;;;;;;;;5.00;5.00;;;;;13.71;76.13;99869.66;4750960;29;45289;-60
2023/03/13 05:55:03;;;;;;;;;5.25;4.75;;;;;13.68;75.79;99866.31;4749364;29;45379;-59
2023/03/13 05:57:28;;;;;;;;;6.00;5.00;;;;;13.69;76.32;99873.50;4750810;29;45634;-59
2023/03/13 05:59:54;;;;;;;;;7.75;6.25;;;;;13.71;75.86;99877.94;4748927;29;46144;-61
2023/03/13 06:02:19;;;;;;;;;10.00;4.75;;;;;13.71;75.99;99862.22;4750816;29;45423;-60
2023/03/13 06:04:45;;;;;;;;;6.25;6.00;;;;;13.69;76.01;99856.97;4750887;29;45435;-60
2023/03/13 06:07:11;;;;;;;;;6.40;6.00;;;;;13.69;76.42;99854.22;4750644;29;45603;-60
2023/03/13 06:09:36;;;;;;;;;3.50;3.25;;;;;13.69;76.33;99853.38;4750571;29;45865;-59
2023/03/13 06:12:02;;;;;;;;;5.25;5.25;;;;;13.67;75.72;99839.81;4749314;29;45481;-59
2023/03/13 06:14:28;;;;;;;;;4.75;4.25;;;;;13.68;76.47;99847.00;4750349;29;45516;-59
2023/03/13 06:16:54;;;;;;;;;6.75;5.00;;;;;13.68;76.14;99847.00;4750754;29;45401;-59
2023/03/13 06:19:21;;;;;;;;;7.40;4.60;;;;;13.65;76.95;99836.50;4749847;29;45801;-59
2023/03/13 06:21:46;;;;;;;;;3.80;3.80;;;;;13.64;77.35;99847.78;4748960;29;45412;-61
2023/03/13 06:24:12;;;;;;;;;4.75;4.75;;;;;13.63;77.70;99844.19;4750073;29;45344;-59
2023/03/13 06:26:37;;;;;;;;;7.00;5.00;;;;;13.64;77.72;99842.25;4751194;29;45598;-61
2023/03/13 06:29:03;;;;;;;;;7.75;6.75;;;;;13.53;77.45;99833.00;4750434;29;45763;-60
2023/03/13 06:31:28;;;;;;;;;6.50;5.50;;;;;13.62;77.39;99847.19;4748681;29;45606;-60
2023/03/13 06:33:54;;;;;;;;;12.25;10.25;;;;;13.63;77.92;99849.72;4749651;29;45454;-59
2023/03/13 06:36:20;;;;;;;;;12.75;12.25;;;;;13.62;77.25;99831.50;4750203;29;45591;-60
2023/03/13 06:38:46;;;;;;;;;6.60;6.00;;;;;13.63;77.56;99841.44;4750028;29;46163;-60
2023/03/13 06:41:11;;;;;;;;;5.50;5.50;;;;;13.64;77.45;99839.50;4750030;29;45415;-60
2023/03/13 06:43:39;;;;;;;;;5.50;4.25;;;;;13.65;77.59;99836.50;4750438;29;45416;-60
2023/03/13 06:46:05;;;;;;;;;3.60;3.60;;;;;13.64;78.12;99834.84;4749122;29;45473;-61
2023/03/13 06:48:31;;;;;;;;;7.00;5.75;;;;;13.58;77.83;99830.34;4749659;29;45547;-61
2023/03/13 06:50:56;;;;;;;;;5.25;5.25;;;;;13.64;77.60;99828.47;4749009;29;45429;-60
2023/03/13 06:53:21;;;;;;;;;5.00;4.00;;;;;13.62;77.77;99825.16;4749823;29;45495;-61
2023/03/13 06:55:47;;;;;;;;;6.25;4.75;;;;;13.44;78.41;99795.94;4748733;29;45429;-60
2023/03/13 06:58:13;;;;;;;;;5.40;5.40;;;;;13.60;78.06;99811.59;4749443;29;45693;-59
2023/03/13 07:00:39;;;;;;;;;6.00;5.60;;;;;13.49;77.48;99793.25;4749753;29;45430;-60
2023/03/13 07:03:05;;;;;;;;;5.50;5.50;;;;;13.59;78.13;99806.34;4750191;29;45405;-60
2023/03/13 07:05:31;;;;;;;;;5.50;5.50;;;;;13.50;78.06;99805.97;4749849;29;45318;-59
2023/03/13 07:07:56;;;;;;;;;8.50;6.00;;;;;13.59;78.11;99815.47;4749723;29;45421;-60
2023/03/13 07:10:22;;;;;;;;;4.00;4.00;;;;;13.50;78.25;99800.47;4749644;29;45426;-60
2023/03/13 07:12:47;;;;;;;;;4.25;4.25;;;;;13.64;77.78;99821.06;4734282;29;45950;-61
2023/03/13 07:15:13;;;;;;;;;4.75;4.75;;;;;13.64;77.77;99818.28;4749858;29;45420;-59
2023/03/13 07:17:38;;;;;;;;;4.25;4.25;;;;;13.63;78.07;99816.63;4749360;29;45894;-59
2023/03/13 07:20:06;;;;;;;;;6.00;4.75;;;;;13.48;78.05;99797.94;4750071;29;45419;-60
2023/03/13 07:22:31;;;;;;;;;5.00;4.00;;;;;13.68;77.75;99813.09;4730863;29;45549;-60
2023/03/13 07:24:57;;;;;;;;;5.25;5.25;;;;;13.68;77.91;99808.41;4749966;29;45651;-61
2023/03/13 07:27:22;;;;;;;;;9.25;6.25;;;;;13.57;77.67;99803.88;4749969;29;45857;-61
2023/03/13 07:29:48;;;;;;;;;5.50;4.00;;;;;13.71;77.86;99806.25;4749539;29;45476;-60
2023/03/13 07:32:14;;;;;;;;;8.25;6.50;;;;;13.53;77.60;99772.38;4749665;29;45456;-59
2023/03/13 07:34:39;;;;;;;;;8.25;6.50;;;;;13.72;77.62;99805.16;4749648;29;45479;-60
2023/03/13 07:37:05;;;;;;;;;6.25;5.00;;;;;13.70;77.49;99797.13;4749254;29;47232;-60
2023/03/13 07:39:30;;;;;;;;;8.00;7.75;;;;;13.61;77.52;99771.09;4749288;29;45456;-59
2023/03/13 07:41:56;;;;;;;;;5.75;5.75;;;;;13.74;77.68;99794.69;4748466;29;45688;-59
2023/03/13 07:44:21;;;;;;;;;4.00;4.00;;;;;13.77;77.20;99788.69;4748885;29;45710;-59
2023/03/13 07:46:48;;;;;;;;;5.75;5.75;;;;;13.80;77.19;99799.19;4748294;29;46215;-59
2023/03/13 07:49:14;;;;;;;;;4.80;4.80;;;;;13.86;77.34;99778.03;4749000;29;45590;-59
2023/03/13 07:51:40;;;;;;;;;6.25;5.00;;;;;13.87;77.41;99787.97;4749291;29;45451;-59
2023/03/13 07:54:05;;;;;;;;;4.00;4.00;;;;;13.81;77.40;99781.53;4749196;29;45438;-58
2023/03/13 07:56:31;;;;;;;;;6.00;4.75;;;;;13.82;77.76;99772.16;4748889;29;45955;-58
2023/03/13 07:58:56;;;;;;;;;5.50;5.50;;;;;13.83;77.91;99773.84;4748587;29;45440;-58
2023/03/13 08:01:23;;;;;;;;;4.00;4.00;;;;;13.88;77.68;99771.13;4747908;29;45439;-55
2023/03/13 08:03:49;;;;;;;;;5.80;4.40;;;;;13.91;77.35;99773.41;4749154;29;45978;-58
2023/03/13 08:06:17;;;;;;;;;6.25;4.00;;;;;13.89;77.60;99766.47;4747436;29;47753;-56
2023/03/13 08:08:42;;;;;;;;;6.40;4.80;;;;;13.86;77.20;99767.00;4748955;29;45664;-55
2023/03/13 08:11:15;;;;;;;;;4.50;4.25;;;;;13.91;76.88;99770.63;4749061;29;45413;-58
2023/03/13 08:13:41;;;;;;;;;7.60;6.60;;;;;13.92;76.60;99761.25;4749387;29;45435;-56
2023/03/13 08:16:07;;;;;;;;;5.50;4.00;;;;;13.78;76.80;99740.69;4748762;29;45423;-59
2023/03/13 08:18:33;;;;;;;;;5.20;5.00;;;;;13.95;76.41;99768.19;4748641;29;46080;-57
2023/03/13 08:21:03;;;;;;;;;4.20;4.20;;;;;14.00;76.75;99764.66;4748915;29;45518;-58
2023/03/13 08:23:29;;;;;;;;;5.20;4.00;;;;;14.03;77.09;99748.41;4740926;29;45969;-58
2023/03/13 08:25:55;;;;;;;;;5.00;3.80;;;;;14.04;76.56;99735.47;4743918;29;46316;-58
2023/03/13 08:28:20;;;;;;;;;6.00;6.00;;;;;14.07;76.65;99745.97;4747731;29;45606;-59
2023/03/13 08:30:46;;;;;;;;;4.25;4.25;;;;;14.10;76.30;99740.75;4748862;29;45682;-57
2023/03/13 08:33:11;;;;;;;;;6.00;4.50;;;;;14.12;76.11;99742.41;4748451;29;46101;-58
2023/03/13 08:35:36;;;;;;;;;5.25;5.25;;;;;14.16;75.98;99736.16;4748332;29;45484;-57
2023/03/13 08:38:02;;;;;;;;;4.00;4.00;;;;;14.16;76.08;99727.03;4748260;29;45349;-57
2023/03/13 08:40:28;;;;;;;;;3.75;3.75;;;;;13.99;76.02;99692.13;4748579;29;45391;-56
2023/03/13 08:42:53;;;;;;;;;4.50;4.50;;;;;14.26;75.84;99735.41;4748603;29;45433;-56
2023/03/13 08:45:19;;;;;;;;;6.50;5.25;;;;;14.06;75.26;99694.66;4748285;29;45877;-59
2023/03/13 08:47:44;;;;;;;;;5.00;4.25;;;;;14.25;75.29;99722.69;4731753;29;45479;-56
2023/03/13 08:50:10;;;;;;;;;4.00;4.00;;;;;14.29;75.48;99723.03;4748113;29;45432;-59
2023/03/13 08:52:36;;;;;;;;;6.00;4.40;;;;;14.25;74.86;99711.66;4748495;29;45728;-59
2023/03/13 08:55:01;;;;;;;;;5.75;3.75;;;;;14.20;75.43;99698.63;4747992;29;45727;-61
2023/03/13 08:57:27;;;;;;;;;3.50;3.50;;;;;14.30;75.46;99705.38;4711544;29;46991;-61
2023/03/13 08:59:52;;;;;;;;;4.50;3.00;;;;;14.32;75.27;99709.53;4738185;29;45500;-62
2023/03/13 09:02:19;;;;;;;;;6.00;3.25;;;;;14.16;74.98;99677.34;4730945;29;45837;-61
2023/03/13 09:04:46;;;;;;;;;4.00;4.00;;;;;14.42;74.57;99711.56;4726263;30;46940;-62
2023/03/13 09:07:12;;;;;;;;;3.00;3.00;;;;;14.49;74.53;99714.06;4740344;29;45733;-61
2023/03/13 09:09:38;;;;;;;;;4.00;3.25;;;;;14.55;75.02;99695.59;4744085;29;45486;-62
2023/03/13 09:12:03;;;;;;;;;5.00;5.00;;;;;14.57;75.60;99708.06;4745904;29;45543;-61
2023/03/13 09:14:29;;;;;;;;;7.25;4.50;;;;;14.59;75.59;99686.56;4744841;29;45567;-61
2023/03/13 09:16:55;;;;;;;;;3.60;3.60;;;;;14.62;76.08;99683.25;4744557;29;45682;-62
2023/03/13 09:19:20;;;;;;;;;5.50;5.00;;;;;14.63;76.37;99684.09;4745044;29;45836;-62
2023/03/13 09:21:48;;;;;;;;;4.50;4.00;;;;;14.62;76.36;99663.91;4728513;29;45439;-62
2023/03/13 09:24:13;;;;;;;;;7.20;6.20;;;;;14.61;76.23;99658.66;4740979;29;48560;-61
2023/03/13 09:26:39;;;;;;;;;4.25;4.25;;;;;14.58;75.80;99650.91;4744605;29;45772;-60
2023/03/13 09:29:04;;;;;;;;;6.00;4.75;;;;;14.56;76.27;99647.59;4745271;29;45587;-60
2023/03/13 09:31:31;;;;;;;;;4.25;4.25;;;;;14.33;76.30;99625.63;4742984;29;45489;-61
2023/03/13 09:33:56;;;;;;;;;3.00;3.00;;;;;14.54;76.35;99647.84;4735169;29;45720;-62
2023/03/13 09:36:25;;;;;;;;;5.00;5.00;;;;;14.54;75.70;99641.50;4728600;29;45578;-61
2023/03/13 09:38:52;;;;;;;;;5.00;4.00;;;;;14.55;75.56;99635.72;4744450;29;45962;-61
2023/03/13 09:41:26;;;;;;;;;7.40;5.80;;;;;14.60;75.22;99643.19;4744010;29;45503;-61
2023/03/13 09:44:19;;;;;;;;;4.60;4.60;;;;;14.59;74.99;99636.00;4742152;29;46553;-61
2023/03/13 09:47:00;;;;;;;;;5.20;3.80;;;;;14.69;74.81;99629.72;4715404;29;45540;-58
2023/03/13 09:49:45;;;;;;;;;3.80;3.80;;;;;14.74;74.57;99644.41;4744505;29;45798;-62
2023/03/13 09:52:24;;;;;;;;;4.80;4.60;;;;;14.67;74.20;99605.13;4743262;29;45407;-61
2023/03/13 09:54:56;;;;;;;;;5.00;3.20;;;;;14.81;73.99;99630.38;4742840;29;45816;-58
2023/03/13 09:57:30;;;;;;;;;3.00;3.00;;;;;14.84;73.98;99623.50;4743764;29;45592;-62
2023/03/13 10:00:15;;;;;;;;;6.80;3.20;;;;;14.83;74.96;99619.88;4754380;29;45583;-62
2023/03/13 10:03:02;;;;;;;;;4.00;3.60;;;;;14.81;74.67;99607.44;4726599;29;45552;-63
2023/03/13 10:05:28;;;;;;;;;3.80;3.80;;;;;14.77;74.86;99605.22;4743343;29;46729;-63
2023/03/13 10:08:07;;;;;;;;;3.80;3.00;;;;;14.86;74.52;99621.28;4741631;29;46176;-63
2023/03/13 10:10:54;;;;;;;;;2.60;2.20;;;;;14.95;74.31;99622.47;4727777;29;45769;-62
2023/03/13 10:13:56;;;;;;;;;3.00;3.00;;;;;15.05;73.57;99624.41;4746430;29;45820;-63
2023/03/13 10:16:37;;;;;;;;;3.40;2.40;;;;;14.88;72.84;99581.25;4738700;29;45768;-61
2023/03/13 10:19:34;;;;;;;;;3.00;3.00;;;;;15.16;72.48;99608.72;4732075;29;45631;-61
2023/03/13 10:22:01;;;;;;;;;5.60;3.00;;;;;15.07;71.98;99568.88;4739205;29;45428;-60
2023/03/13 10:24:50;;;;;;;;;4.80;3.00;;;;;15.32;71.66;99618.72;4746599;29;45692;-62
2023/03/13 10:27:16;;;;;;;;;2.20;2.20;;;;;15.38;71.25;99597.44;4726920;29;46638;-62
2023/03/13 10:29:41;;;;;;;;;1.50;1.50;;;;;15.35;71.10;99573.13;4744427;29;45434;-61
2023/03/13 10:32:09;;;;;;;;;1.75;1.75;;;;;15.74;70.63;99593.09;4747682;29;45412;-62
2023/03/13 10:35:04;;;;;;;;;3.00;0.80;;;;;15.93;69.70;99585.13;4747810;29;45835;-61
2023/03/13 10:37:31;;;;;;;;;1.80;1.00;;;;;15.97;69.79;99595.34;4742345;29;47084;-62
2023/03/13 10:40:24;;;;;;;;;1.00;1.00;;;;;15.92;69.50;99569.63;4745814;29;45689;-60
2023/03/13 10:42:51;;;;;;;;;3.40;3.00;;;;;15.91;68.81;99535.56;4744308;29;45885;-59
2023/03/13 10:45:18;;;;;;;;;2.00;2.00;;;;;16.26;68.25;99561.59;4727334;29;46343;-62
2023/03/13 10:47:44;;;;;;;;;1.60;1.60;;;;;16.34;67.07;99557.41;4733618;29;47584;-62
2023/03/13 10:50:17;;;;;;;;;1.50;1.50;;;;;16.33;67.19;99554.94;4745657;29;45422;-60
2023/03/13 10:52:47;;;;;;;;;1.00;1.00;;;;;16.46;66.48;99546.03;4748857;29;45394;-60
2023/03/13 10:55:17;;;;;;;;;1.00;1.00;;;;;16.54;66.47;99552.94;4747662;29;45535;-60
2023/03/13 10:57:57;;;;;;;;;2.20;2.20;;;;;16.72;66.10;99547.91;4747864;29;47516;-59
2023/03/13 11:00:36;;;;;;;;;1.80;1.80;;;;;17.00;64.60;99538.09;4734796;29;45612;-60
2023/03/13 11:03:06;;;;;;;;;4.20;2.00;;;;;17.09;64.40;99530.03;4720253;30;45790;-59
2023/03/13 11:05:44;;;;;;;;;1.00;1.00;;;;;17.20;63.58;99533.59;4744175;29;45535;-58
2023/03/13 11:08:11;;;;;;;;;1.60;1.60;;;;;17.19;63.57;99523.63;4748693;29;46746;-58
2023/03/13 11:10:37;;;;;;;;;2.20;1.60;;;;;17.40;63.14;99529.84;4747887;29;45462;-61
2023/03/13 11:13:02;;;;;;;;;1.00;1.00;;;;;17.46;62.25;99508.47;4732050;29;45944;-59
2023/03/13 11:15:33;;;;;;;;;1.50;1.00;;;;;17.84;61.49;99535.63;4749241;29;45452;-61
2023/03/13 11:18:06;;;;;;;;;2.00;2.00;;;;;17.80;60.94;99531.78;4748480;29;46051;-60
2023/03/13 11:20:35;;;;;;;;;2.80;2.80;;;;;17.87;60.96;99543.38;4746939;29;45577;-61
2023/03/13 11:23:26;;;;;;;;;2.00;1.60;;;;;17.85;60.99;99556.72;4735979;29;45545;-58
2023/03/13 11:26:05;;;;;;;;;2.40;2.40;;;;;17.74;60.96;99556.81;4747548;29;45673;-60
2023/03/13 11:28:51;;;;;;;;;3.20;2.20;;;;;17.52;60.80;99548.91;4734383;29;46683;-60
2023/03/13 11:31:18;;;;;;;;;1.40;1.40;;;;;17.28;61.18;99532.97;4749125;29;45450;-63
2023/03/13 11:33:57;;;;;;;;;3.60;2.20;;;;;17.22;61.18;99534.13;4733412;29;45380;-61